createdAt,value
2022-10-11T00:00:24.859Z,21.02
2022-10-11T00:02:26.583Z,20.96
2022-10-11T00:04:27.914Z,20.92
2022-10-11T00:06:29.231Z,20.87
2022-10-11T00:08:31.042Z,20.82
2022-10-11T00:10:32.567Z,20.78
2022-10-11T00:12:33.847Z,20.74
2022-10-11T00:14:35.192Z,20.70
2022-10-11T00:16:38.607Z,20.68
2022-10-11T00:18:39.940Z,20.68
2022-10-11T00:20:41.237Z,20.69
2022-10-11T00:22:42.606Z,20.69
2022-10-11T00:24:43.910Z,20.69
2022-10-11T00:26:46.997Z,20.69
2022-10-11T00:28:48.534Z,20.68
2022-10-11T00:30:49.861Z,20.67
2022-10-11T00:32:51.159Z,20.64
2022-10-11T00:34:52.496Z,20.61
2022-10-11T00:36:53.773Z,20.59
2022-10-11T00:38:55.108Z,20.56
2022-10-11T00:40:56.630Z,20.54
2022-10-11T00:42:57.911Z,20.51
2022-10-11T00:44:59.178Z,20.48
2022-10-11T00:47:00.451Z,20.45
2022-10-11T00:49:01.725Z,20.43
2022-10-11T00:51:03.434Z,20.42
2022-10-11T00:53:04.966Z,20.40
2022-10-11T00:55:06.222Z,20.38
2022-10-11T00:57:07.511Z,20.36
2022-10-11T00:59:08.786Z,20.36
2022-10-11T01:01:10.087Z,20.36
2022-10-11T01:03:11.382Z,20.38
2022-10-11T01:05:28.520Z,20.38
2022-10-11T01:07:31.447Z,20.40
2022-10-11T01:09:32.710Z,20.40
2022-10-11T01:11:34.014Z,20.40
2022-10-11T01:13:35.314Z,20.38
2022-10-11T01:15:36.664Z,20.37
2022-10-11T01:17:37.936Z,20.37
2022-10-11T01:19:39.204Z,20.40
2022-10-11T01:21:40.527Z,20.39
2022-10-11T01:23:41.802Z,20.38
2022-10-11T01:25:43.119Z,20.37
2022-10-11T01:27:44.435Z,20.33
2022-10-11T01:29:45.728Z,20.30
2022-10-11T01:31:47.339Z,20.28
2022-10-11T01:33:48.618Z,20.26
2022-10-11T01:35:49.942Z,20.24
2022-10-11T01:37:51.284Z,20.22
2022-10-11T01:39:52.586Z,20.24
2022-10-11T01:41:53.890Z,20.24
2022-10-11T01:43:55.195Z,20.26
2022-10-11T01:45:56.478Z,20.30
2022-10-11T01:47:57.783Z,20.32
2022-10-11T01:49:59.098Z,20.34
2022-10-11T01:52:00.371Z,20.37
2022-10-11T01:54:01.693Z,20.35
2022-10-11T01:56:03.325Z,20.34
2022-10-11T01:58:04.814Z,20.35
2022-10-11T02:00:06.326Z,20.41
2022-10-11T02:02:07.602Z,20.45
2022-10-11T02:04:08.900Z,20.41
2022-10-11T02:06:10.187Z,20.41
2022-10-11T02:08:11.503Z,20.38
2022-10-11T02:10:12.841Z,20.40
2022-10-11T02:12:14.141Z,20.40
2022-10-11T02:14:15.459Z,20.42
2022-10-11T02:16:16.860Z,20.43
2022-10-11T02:18:18.225Z,20.43
2022-10-11T02:20:19.736Z,20.44
2022-10-11T02:22:21.003Z,20.43
2022-10-11T02:24:22.494Z,20.42
2022-10-11T02:26:23.789Z,20.41
2022-10-11T02:28:25.237Z,20.40
2022-10-11T02:30:26.535Z,20.36
2022-10-11T02:32:27.817Z,20.35
2022-10-11T02:34:29.078Z,20.34
2022-10-11T02:36:31.143Z,20.32
2022-10-11T02:38:32.439Z,20.33
2022-10-11T02:40:33.735Z,20.36
2022-10-11T02:42:36.519Z,19.53
2022-10-11T02:44:37.806Z,20.35
2022-10-11T02:46:39.077Z,20.35
2022-10-11T02:48:40.419Z,20.35
2022-10-11T02:50:41.696Z,20.38
2022-10-11T02:52:42.965Z,20.38
2022-10-11T02:54:44.214Z,20.37
2022-10-11T02:56:46.323Z,20.38
2022-10-11T02:58:47.627Z,20.38
2022-10-11T03:00:48.897Z,20.38
2022-10-11T03:02:50.170Z,20.38
2022-10-11T03:04:51.427Z,20.39
2022-10-11T03:06:52.682Z,20.40
2022-10-11T03:08:53.987Z,20.38
2022-10-11T03:10:55.286Z,20.36
2022-10-11T03:12:56.769Z,20.36
2022-10-11T03:14:58.111Z,20.36
2022-10-11T03:17:17.179Z,20.37
2022-10-11T03:19:21.806Z,20.39
2022-10-11T03:21:25.115Z,20.38
2022-10-11T03:23:26.388Z,20.37
2022-10-11T03:25:27.707Z,19.54
2022-10-11T03:27:28.985Z,20.38
2022-10-11T03:29:30.288Z,20.41
2022-10-11T03:31:31.606Z,20.45
2022-10-11T03:33:32.902Z,20.47
2022-10-11T03:35:34.213Z,20.45
2022-10-11T03:37:35.506Z,20.45
2022-10-11T03:39:36.870Z,20.45
2022-10-11T03:41:38.177Z,20.46
2022-10-11T03:43:39.669Z,20.48
2022-10-11T03:45:42.451Z,20.48
2022-10-11T03:47:43.734Z,20.45
2022-10-11T03:49:45.048Z,20.43
2022-10-11T03:51:46.315Z,20.42
2022-10-11T03:53:47.603Z,20.40
2022-10-11T03:55:48.862Z,20.38
2022-10-11T03:57:50.194Z,20.38
2022-10-11T03:59:51.565Z,20.38
2022-10-11T04:01:52.917Z,20.38
2022-10-11T04:03:54.250Z,20.39
2022-10-11T04:05:55.565Z,20.38
2022-10-11T04:07:56.843Z,20.42
2022-10-11T04:09:58.232Z,20.43
2022-10-11T04:11:59.558Z,20.40
2022-10-11T04:14:03.552Z,20.40
2022-10-11T04:16:05.081Z,20.38
2022-10-11T04:18:07.106Z,20.38
2022-10-11T04:20:08.389Z,20.36
2022-10-11T04:22:09.657Z,20.42
2022-10-11T04:24:11.034Z,20.50
2022-10-11T04:26:12.367Z,20.43
2022-10-11T04:28:13.674Z,20.40
2022-10-11T04:30:14.983Z,20.38
2022-10-11T04:32:16.241Z,20.35
2022-10-11T04:34:17.686Z,20.37
2022-10-11T04:36:18.998Z,20.35
2022-10-11T04:38:20.439Z,20.36
2022-10-11T04:40:21.698Z,20.35
2022-10-11T04:42:23.044Z,20.33
2022-10-11T04:44:24.359Z,20.31
2022-10-11T04:46:25.860Z,20.33
2022-10-11T04:48:27.154Z,20.33
2022-10-11T04:50:28.493Z,20.35
2022-10-11T04:52:29.753Z,20.38
2022-10-11T04:54:31.040Z,20.39
2022-10-11T04:56:32.357Z,20.41
2022-10-11T04:58:33.609Z,20.42
2022-10-11T05:00:34.862Z,20.41
2022-10-11T05:02:36.139Z,20.41
2022-10-11T05:04:37.454Z,20.41
2022-10-11T05:06:38.731Z,20.42
2022-10-11T05:08:40.010Z,20.42
2022-10-11T05:10:41.474Z,20.42
2022-10-11T05:12:42.743Z,20.43
2022-10-11T05:14:44.030Z,20.43
2022-10-11T05:16:45.347Z,20.42
2022-10-11T05:18:46.604Z,20.44
2022-10-11T05:20:47.908Z,20.46
2022-10-11T05:22:49.191Z,20.47
2022-10-11T05:24:50.499Z,20.50
2022-10-11T05:26:51.897Z,20.49
2022-10-11T05:28:53.270Z,20.49
2022-10-11T05:30:54.611Z,20.47
2022-10-11T05:32:55.928Z,20.46
2022-10-11T05:34:57.187Z,20.44
2022-10-11T05:36:58.598Z,20.42
2022-10-11T05:38:59.874Z,20.44
2022-10-11T05:41:01.153Z,20.45
2022-10-11T05:43:02.423Z,20.46
2022-10-11T05:45:03.691Z,20.45
2022-10-11T05:47:04.978Z,20.45
2022-10-11T05:49:06.283Z,20.47
2022-10-11T05:51:07.559Z,20.51
2022-10-11T05:53:08.869Z,20.52
2022-10-11T05:55:10.191Z,20.51
2022-10-11T05:57:11.445Z,20.49
2022-10-11T05:59:12.733Z,20.48
2022-10-11T06:01:14.024Z,20.47
2022-10-11T06:03:15.519Z,20.45
2022-10-11T06:05:16.833Z,20.43
2022-10-11T06:07:18.326Z,20.41
2022-10-11T06:09:19.618Z,20.40
2022-10-11T06:11:20.929Z,20.40
2022-10-11T06:13:22.220Z,20.38
2022-10-11T06:15:23.557Z,20.36
2022-10-11T06:17:24.893Z,20.38
2022-10-11T06:19:26.162Z,20.41
2022-10-11T06:21:27.458Z,20.40
2022-10-11T06:23:28.743Z,20.39
2022-10-11T06:25:30.089Z,20.44
2022-10-11T06:27:31.419Z,20.46
2022-10-11T06:29:32.679Z,20.47
2022-10-11T06:31:33.998Z,19.66
2022-10-11T06:33:35.274Z,20.48
2022-10-11T06:35:36.541Z,20.49
2022-10-11T06:37:37.818Z,20.49
2022-10-11T06:39:39.141Z,20.48
2022-10-11T06:41:40.407Z,20.46
2022-10-11T06:43:41.731Z,20.48
2022-10-11T06:45:43.049Z,20.47
2022-10-11T06:47:44.399Z,20.44
2022-10-11T06:49:45.714Z,20.42
2022-10-11T06:51:46.987Z,20.40
2022-10-11T06:53:48.279Z,20.39
2022-10-11T06:55:49.587Z,20.40
2022-10-11T06:57:50.850Z,20.40
2022-10-11T06:59:52.152Z,20.42
2022-10-11T07:01:53.431Z,20.44
2022-10-11T07:03:54.838Z,20.44
2022-10-11T07:05:58.975Z,20.44
2022-10-11T07:08:03.484Z,20.45
2022-10-11T07:10:04.754Z,20.43
2022-10-11T07:12:06.034Z,20.50
2022-10-11T07:14:08.059Z,20.61
2022-10-11T07:16:09.848Z,20.69
2022-10-11T07:18:11.321Z,20.56
2022-10-11T07:20:12.591Z,20.59
2022-10-11T07:22:13.888Z,20.50
2022-10-11T07:24:15.179Z,20.40
2022-10-11T07:26:16.468Z,20.31
2022-10-11T07:28:17.820Z,20.28
2022-10-11T07:30:19.172Z,20.58
2022-10-11T07:32:20.431Z,20.62
2022-10-11T07:34:22.881Z,20.70
2022-10-11T07:36:24.236Z,20.63
2022-10-11T07:38:25.522Z,20.38
2022-10-11T07:40:26.938Z,20.28
2022-10-11T07:42:28.241Z,20.22
2022-10-11T07:44:29.631Z,20.19
2022-10-11T07:46:31.281Z,20.16
2022-10-11T07:48:32.587Z,20.15
2022-10-11T07:50:33.901Z,20.14
2022-10-11T07:52:35.642Z,20.13
2022-10-11T07:54:36.974Z,20.15
2022-10-11T07:56:39.924Z,20.16
2022-10-11T07:58:41.217Z,20.20
2022-10-11T08:00:43.132Z,20.25
2022-10-11T08:02:44.447Z,20.31
2022-10-11T08:04:45.798Z,20.39
2022-10-11T08:06:51.077Z,20.44
2022-10-11T08:08:54.613Z,20.49
2022-10-11T08:10:55.940Z,20.53
2022-10-11T08:13:01.961Z,20.56
2022-10-11T08:15:05.504Z,20.65
2022-10-11T08:17:06.888Z,19.99
2022-10-11T08:19:08.166Z,19.40
2022-10-11T08:21:09.513Z,19.59
2022-10-11T08:23:10.839Z,19.85
2022-10-11T08:25:12.154Z,20.15
2022-10-11T08:27:13.426Z,20.33
2022-10-11T08:29:14.743Z,20.43
2022-10-11T08:31:16.165Z,20.77
2022-10-11T08:33:17.534Z,20.78
2022-10-11T08:35:18.859Z,21.46
2022-10-11T08:37:20.136Z,21.34
2022-10-11T08:39:21.404Z,21.06
2022-10-11T08:41:23.024Z,20.94
2022-10-11T08:43:24.354Z,21.26
2022-10-11T08:45:25.678Z,20.89
2022-10-11T08:47:27.720Z,20.77
2022-10-11T08:49:29.076Z,20.74
2022-10-11T08:51:30.698Z,20.72
2022-10-11T08:53:32.279Z,20.79
2022-10-11T08:55:33.546Z,20.88
2022-10-11T08:57:34.899Z,20.89
2022-10-11T08:59:36.176Z,20.86
2022-10-11T09:01:37.531Z,20.88
2022-10-11T09:03:38.837Z,20.87
2022-10-11T09:05:40.119Z,20.86
2022-10-11T09:07:41.500Z,20.74
2022-10-11T09:09:42.783Z,20.78
2022-10-11T09:11:45.665Z,20.84
2022-10-11T09:13:46.990Z,20.76
2022-10-11T09:15:48.264Z,20.69
2022-10-11T09:17:49.545Z,20.57
2022-10-11T09:19:51.046Z,20.56
2022-10-11T09:21:52.703Z,20.46
2022-10-11T09:23:53.974Z,20.62
2022-10-11T09:25:57.594Z,20.70
2022-10-11T09:28:02.987Z,20.75
2022-10-11T09:30:05.010Z,20.67
2022-10-11T09:32:06.706Z,20.53
2022-10-11T09:34:07.980Z,20.44
2022-10-11T09:36:09.472Z,20.35
2022-10-11T09:38:10.851Z,19.50
2022-10-11T09:40:12.123Z,20.25
2022-10-11T09:42:13.398Z,20.41
2022-10-11T09:44:14.713Z,20.53
2022-10-11T09:46:15.999Z,20.60
2022-10-11T09:48:17.306Z,20.56
2022-10-11T09:50:18.749Z,21.01
2022-10-11T09:52:20.139Z,21.32
2022-10-11T09:54:27.363Z,21.93
2022-10-11T09:56:28.658Z,21.75
2022-10-11T09:58:30.139Z,20.98
2022-10-11T10:00:33.902Z,22.03
2022-10-11T10:02:35.176Z,22.37
2022-10-11T10:04:36.466Z,21.77
2022-10-11T10:06:37.801Z,21.47
2022-10-11T10:08:39.149Z,21.35
2022-10-11T10:10:40.465Z,21.25
2022-10-11T10:12:41.734Z,21.14
2022-10-11T10:14:43.069Z,21.96
2022-10-11T10:16:44.354Z,22.36
2022-10-11T10:18:45.642Z,22.51
2022-10-11T10:20:46.946Z,22.63
2022-10-11T10:22:48.358Z,22.41
2022-10-11T10:24:49.666Z,22.36
2022-10-11T10:26:51.198Z,22.50
2022-10-11T10:28:52.593Z,22.04
2022-10-11T10:30:54.564Z,21.68
2022-10-11T10:32:55.945Z,21.53
2022-10-11T10:34:57.217Z,21.51
2022-10-11T10:36:58.498Z,21.50
2022-10-11T10:39:00.090Z,21.47
2022-10-11T10:41:01.428Z,21.95
2022-10-11T10:43:04.293Z,22.86
2022-10-11T10:45:11.200Z,23.00
2022-10-11T10:47:15.565Z,22.54
2022-10-11T10:49:48.416Z,22.41
2022-10-11T10:51:38.266Z,22.36
2022-10-11T10:53:41.760Z,23.20
2022-10-11T10:55:43.055Z,23.08
2022-10-11T10:57:44.390Z,22.77
2022-10-11T10:59:45.701Z,22.58
2022-10-11T11:01:47.053Z,22.56
2022-10-11T11:03:48.398Z,22.55
2022-10-11T11:05:49.692Z,22.56
2022-10-11T11:09:52.296Z,22.54
2022-10-11T11:11:53.636Z,22.41
2022-10-11T11:13:54.932Z,22.20
2022-10-11T11:15:56.216Z,22.14
2022-10-11T11:17:57.506Z,22.10
2022-10-11T11:19:58.786Z,22.09
2022-10-11T11:22:00.082Z,22.09
2022-10-11T11:24:01.407Z,22.04
2022-10-11T11:26:04.012Z,21.87
2022-10-11T11:28:05.541Z,21.73
2022-10-11T11:30:06.874Z,21.67
2022-10-11T11:32:08.215Z,21.73
2022-10-11T11:34:09.496Z,21.16
2022-10-11T11:36:10.787Z,21.90
2022-10-11T11:38:12.218Z,21.99
2022-10-11T11:40:13.609Z,22.03
2022-10-11T11:42:15.393Z,21.99
2022-10-11T11:44:16.668Z,22.01
2022-10-11T11:46:17.981Z,21.96
2022-10-11T11:48:19.349Z,21.94
2022-10-11T11:50:23.948Z,21.79
2022-10-11T11:52:25.288Z,21.87
2022-10-11T11:54:28.213Z,21.90
2022-10-11T11:56:29.507Z,21.91
2022-10-11T11:58:30.893Z,21.78
2022-10-11T12:00:32.191Z,21.73
2022-10-11T12:02:33.632Z,21.67
2022-10-11T12:04:35.127Z,21.68
2022-10-11T12:06:47.699Z,21.70
2022-10-11T12:08:57.796Z,21.67
2022-10-11T12:10:59.075Z,21.58
2022-10-11T12:13:00.333Z,21.47
2022-10-11T12:15:01.615Z,21.71
2022-10-11T12:17:02.886Z,21.88
2022-10-11T12:19:04.174Z,22.13
2022-10-11T12:21:06.104Z,22.11
2022-10-11T12:23:07.741Z,22.15
2022-10-11T12:25:09.413Z,22.17
2022-10-11T12:27:10.700Z,22.17
2022-10-11T12:29:11.978Z,22.34
2022-10-11T12:31:13.266Z,22.28
2022-10-11T12:33:14.634Z,22.48
2022-10-11T12:37:17.169Z,22.47
2022-10-11T12:39:18.464Z,22.42
2022-10-11T12:41:19.755Z,22.38
2022-10-11T12:43:21.034Z,22.35
2022-10-11T12:45:22.337Z,22.32
2022-10-11T12:47:23.616Z,22.43
2022-10-11T12:49:24.985Z,22.64
2022-10-11T12:51:26.657Z,22.77
2022-10-11T12:53:27.939Z,22.79
2022-10-11T12:55:29.227Z,22.73
2022-10-11T12:57:30.500Z,22.43
2022-10-11T12:59:31.786Z,22.28
2022-10-11T13:01:33.153Z,22.20
2022-10-11T13:03:34.547Z,22.16
2022-10-11T13:05:35.824Z,22.16
2022-10-11T13:07:37.093Z,22.16
2022-10-11T13:09:46.603Z,22.16
2022-10-11T13:11:50.210Z,22.19
2022-10-11T13:13:51.497Z,22.79
2022-10-11T13:15:52.768Z,23.02
2022-10-11T13:17:54.249Z,23.05
2022-10-11T13:19:55.531Z,22.93
2022-10-11T13:21:56.851Z,22.67
2022-10-11T13:23:58.168Z,22.81
2022-10-11T13:25:59.432Z,22.58
2022-10-11T13:28:00.754Z,22.64
2022-10-11T13:30:02.526Z,22.81
2022-10-11T13:32:03.799Z,22.96
2022-10-11T13:34:05.983Z,22.79
2022-10-11T13:36:07.646Z,22.41
2022-10-11T13:38:09.291Z,22.21
2022-10-11T13:40:10.638Z,22.11
2022-10-11T13:42:11.927Z,22.00
2022-10-11T13:44:13.219Z,22.58
2022-10-11T13:46:14.527Z,22.85
2022-10-11T13:48:15.978Z,22.87
2022-10-11T13:50:17.269Z,23.00
2022-10-11T13:52:18.558Z,23.23
2022-10-11T13:54:19.862Z,23.19
2022-10-11T13:56:21.148Z,22.37
2022-10-11T13:58:22.426Z,22.73
2022-10-11T14:00:23.826Z,22.88
2022-10-11T14:02:25.095Z,23.21
2022-10-11T14:04:29.703Z,22.75
2022-10-11T14:06:31.307Z,22.90
2022-10-11T14:08:32.645Z,23.37
2022-10-11T14:10:34.062Z,22.92
2022-10-11T14:12:37.002Z,22.93
2022-10-11T14:14:38.479Z,23.08
2022-10-11T14:16:39.770Z,22.24
2022-10-11T14:18:41.114Z,22.35
2022-10-11T14:20:42.444Z,22.32
2022-10-11T14:22:43.724Z,22.35
2022-10-11T14:24:45.060Z,22.37
2022-10-11T14:26:46.402Z,22.35
2022-10-11T14:28:47.739Z,22.33
2022-10-11T14:30:49.172Z,22.49
2022-10-11T14:32:50.459Z,22.50
2022-10-11T14:34:52.689Z,22.81
2022-10-11T14:36:54.039Z,22.72
2022-10-11T14:38:55.358Z,22.57
2022-10-11T14:40:56.690Z,22.63
2022-10-11T14:43:00.037Z,22.66
2022-10-11T14:45:01.303Z,22.69
2022-10-11T14:47:06.566Z,23.09
2022-10-11T14:49:07.853Z,23.24
2022-10-11T14:51:09.197Z,22.62
2022-10-11T14:53:10.516Z,22.02
2022-10-11T14:55:11.803Z,22.24
2022-10-11T14:57:13.150Z,22.53
2022-10-11T14:59:14.423Z,22.95
2022-10-11T15:01:15.763Z,22.61
2022-10-11T15:03:17.121Z,22.41
2022-10-11T15:05:18.425Z,22.31
2022-10-11T15:07:19.972Z,22.28
2022-10-11T15:09:21.409Z,22.24
2022-10-11T15:11:22.693Z,22.23
2022-10-11T15:13:24.032Z,22.20
2022-10-11T15:15:25.317Z,22.19
2022-10-11T15:17:26.602Z,22.05
2022-10-11T15:19:30.226Z,21.68
2022-10-11T15:21:31.505Z,21.85
2022-10-11T15:23:32.787Z,21.55
2022-10-11T15:25:34.641Z,21.38
2022-10-11T15:27:35.939Z,20.67
2022-10-11T15:29:37.211Z,20.75
2022-10-11T15:31:38.534Z,20.83
2022-10-11T15:33:39.789Z,21.16
2022-10-11T15:35:41.091Z,21.72
2022-10-11T15:37:42.427Z,21.35
2022-10-11T15:39:43.927Z,21.19
2022-10-11T15:41:48.068Z,21.16
2022-10-11T15:43:49.390Z,21.28
2022-10-11T15:45:50.758Z,22.00
2022-10-11T15:47:52.045Z,22.13
2022-10-11T15:49:53.344Z,22.04
2022-10-11T15:51:54.617Z,22.00
2022-10-11T15:53:56.429Z,22.06
2022-10-11T15:55:57.726Z,22.07
2022-10-11T15:57:59.062Z,22.46
2022-10-11T16:00:00.373Z,22.17
2022-10-11T16:02:01.720Z,22.04
2022-10-11T16:04:03.046Z,22.01
2022-10-11T16:06:05.715Z,22.12
2022-10-11T16:08:07.295Z,22.73
2022-10-11T16:10:09.146Z,22.38
2022-10-11T16:12:10.438Z,22.40
2022-10-11T16:14:12.236Z,22.34
2022-10-11T16:16:13.584Z,22.30
2022-10-11T16:18:14.869Z,22.28
2022-10-11T16:20:16.191Z,22.26
2022-10-11T16:22:17.484Z,22.35
2022-10-11T16:24:18.802Z,22.33
2022-10-11T16:26:20.093Z,22.37
2022-10-11T16:28:21.426Z,22.34
2022-10-11T16:30:22.835Z,21.88
2022-10-11T16:32:24.400Z,21.62
2022-10-11T16:34:25.740Z,21.80
2022-10-11T16:36:36.382Z,22.24
2022-10-11T16:38:37.870Z,22.26
2022-10-11T16:40:39.191Z,22.18
2022-10-11T16:42:40.489Z,22.14
2022-10-11T16:44:41.837Z,21.87
2022-10-11T16:46:46.123Z,22.10
2022-10-11T16:48:47.441Z,22.07
2022-10-11T16:50:48.733Z,22.08
2022-10-11T16:52:50.055Z,22.09
2022-10-11T16:54:51.495Z,22.25
2022-10-11T16:56:52.881Z,22.19
2022-10-11T16:58:54.178Z,22.22
2022-10-11T17:01:01.497Z,22.09
2022-10-11T17:03:03.224Z,21.72
2022-10-11T17:05:04.538Z,21.75
2022-10-11T17:07:08.087Z,21.95
2022-10-11T17:09:09.382Z,22.03
2022-10-11T17:11:10.675Z,22.19
2022-10-11T17:13:11.998Z,22.72
2022-10-11T17:15:13.745Z,22.51
2022-10-11T17:17:15.006Z,22.42
2022-10-11T17:19:16.479Z,22.35
2022-10-11T17:21:17.814Z,22.25
2022-10-11T17:23:19.203Z,22.25
2022-10-11T17:25:21.210Z,22.43
2022-10-11T17:27:22.531Z,21.55
2022-10-11T17:29:27.262Z,22.49
2022-10-11T17:31:28.592Z,22.44
2022-10-11T17:33:29.878Z,22.37
2022-10-11T17:35:31.162Z,22.33
2022-10-11T17:37:32.523Z,22.37
2022-10-11T17:39:34.105Z,22.18
2022-10-11T17:41:35.411Z,21.86
2022-10-11T17:43:36.714Z,21.85
2022-10-11T17:45:37.998Z,22.37
2022-10-11T17:47:40.237Z,22.33
2022-10-11T17:49:44.573Z,22.34
2022-10-11T17:51:45.866Z,22.23
2022-10-11T17:53:47.167Z,22.36
2022-10-11T17:55:50.418Z,22.39
2022-10-11T17:58:06.857Z,22.40
2022-10-11T18:00:08.178Z,22.45
2022-10-11T18:02:09.496Z,22.47
2022-10-11T18:04:16.591Z,22.51
2022-10-11T18:10:27.338Z,22.55
2022-10-11T18:12:31.358Z,22.81
2022-10-11T18:14:32.635Z,22.75
2022-10-11T18:16:36.630Z,22.63
2022-10-11T18:18:43.675Z,22.54
2022-10-11T18:20:50.863Z,22.57
2022-10-11T18:22:56.255Z,22.27
2022-10-11T18:25:00.801Z,22.02
2022-10-11T18:27:02.190Z,21.85
2022-10-11T18:29:03.457Z,21.74
2022-10-11T18:31:10.001Z,21.67
2022-10-11T18:33:13.737Z,21.63
2022-10-11T18:35:15.047Z,21.60
2022-10-11T18:37:16.342Z,21.55
2022-10-11T18:39:21.819Z,21.53
2022-10-11T18:41:23.155Z,21.79
2022-10-11T18:43:24.466Z,22.17
2022-10-11T18:45:25.814Z,22.32
2022-10-11T18:47:33.115Z,22.41
2022-10-11T18:49:34.386Z,22.47
2022-10-11T18:51:35.676Z,22.52
2022-10-11T18:53:39.804Z,22.48
2022-10-11T18:55:41.132Z,22.55
2022-10-11T18:57:42.503Z,22.54
2022-10-11T18:59:43.861Z,22.58
2022-10-11T19:01:54.154Z,22.62
2022-10-11T19:03:56.757Z,22.63
2022-10-11T19:05:58.043Z,22.67
2022-10-11T19:08:05.486Z,22.72
2022-10-11T19:10:06.771Z,22.73
2022-10-11T19:12:08.106Z,22.77
2022-10-11T19:14:11.021Z,22.79
2022-10-11T19:16:12.335Z,22.72
2022-10-11T19:18:15.941Z,22.87
2022-10-11T19:20:20.880Z,22.81
2022-10-11T19:22:22.198Z,22.71
2022-10-11T19:24:24.334Z,22.67
2022-10-11T19:26:26.973Z,22.73
2022-10-11T19:28:28.823Z,22.81
2022-10-11T19:30:33.267Z,22.84
2022-10-11T19:32:34.580Z,22.86
2022-10-11T19:34:38.623Z,22.90
2022-10-11T19:36:42.223Z,22.97
2022-10-11T19:38:43.554Z,22.89
2022-10-11T19:40:44.831Z,22.43
2022-10-11T19:42:46.212Z,22.62
2022-10-11T19:44:50.498Z,22.70
2022-10-11T19:46:52.766Z,22.78
2022-10-11T19:48:54.535Z,22.88
2022-10-11T19:50:58.982Z,22.85
2022-10-11T19:53:00.251Z,22.88
2022-10-11T19:55:01.524Z,22.83
2022-10-11T19:57:03.380Z,22.96
2022-10-11T19:59:06.372Z,23.02
2022-10-11T20:01:07.813Z,23.02
2022-10-11T20:03:09.387Z,23.02
2022-10-11T20:05:10.680Z,22.99
2022-10-11T20:07:12.045Z,22.95
2022-10-11T20:09:30.652Z,22.96
2022-10-11T20:11:32.318Z,22.91
2022-10-11T20:13:35.167Z,22.92
2022-10-11T20:15:36.672Z,22.97
2022-10-11T20:17:50.402Z,22.99
2022-10-11T20:19:52.723Z,23.02
2022-10-11T20:21:54.003Z,22.95
2022-10-11T20:23:55.278Z,23.02
2022-10-11T20:25:56.850Z,22.98
2022-10-11T20:27:58.154Z,22.96
2022-10-11T20:30:00.423Z,23.03
2022-10-11T20:32:01.760Z,23.06
2022-10-11T20:34:04.205Z,23.02
2022-10-11T20:36:05.558Z,23.07
2022-10-11T20:38:06.841Z,23.03
2022-10-11T20:40:11.146Z,22.99
2022-10-11T20:42:12.474Z,22.99
2022-10-11T20:44:16.055Z,22.97
2022-10-11T20:46:17.575Z,22.94
2022-10-11T20:48:18.996Z,22.94
2022-10-11T20:50:23.098Z,22.93
2022-10-11T20:52:24.562Z,22.88
2022-10-11T20:54:25.866Z,22.84
2022-10-11T20:56:27.154Z,22.88
2022-10-11T20:58:34.138Z,22.84
2022-10-11T21:00:35.442Z,22.81
2022-10-11T21:02:36.752Z,22.43
2022-10-11T21:04:38.009Z,22.20
2022-10-11T21:06:39.342Z,22.44
2022-10-11T21:08:40.656Z,22.57
2022-10-11T21:10:42.422Z,22.60
2022-10-11T21:12:43.696Z,22.61
2022-10-11T21:14:44.969Z,22.67
2022-10-11T21:16:46.298Z,22.62
2022-10-11T21:18:47.576Z,22.65
2022-10-11T21:20:48.897Z,22.66
2022-10-11T21:22:50.163Z,22.74
2022-10-11T21:24:51.463Z,22.78
2022-10-11T21:26:55.836Z,22.88
2022-10-11T21:28:59.754Z,22.87
2022-10-11T21:31:01.031Z,22.92
2022-10-11T21:33:02.323Z,22.97
2022-10-11T21:35:03.585Z,22.96
2022-10-11T21:37:05.068Z,23.07
2022-10-11T21:39:06.415Z,22.69
2022-10-11T21:41:07.698Z,22.94
2022-10-11T21:43:08.966Z,22.92
2022-10-11T21:45:10.221Z,23.00
2022-10-11T21:47:12.445Z,22.96
2022-10-11T21:49:14.049Z,22.94
2022-10-11T21:51:15.354Z,22.88
2022-10-11T21:53:16.613Z,22.90
2022-10-11T21:55:17.907Z,23.03
2022-10-11T21:57:19.174Z,22.97
2022-10-11T21:59:20.447Z,23.03
2022-10-11T22:01:21.777Z,22.94
2022-10-11T22:03:23.132Z,23.08
2022-10-11T22:05:24.527Z,23.21
2022-10-11T22:07:25.817Z,23.27
2022-10-11T22:09:28.422Z,23.38
2022-10-11T22:11:29.709Z,23.25
2022-10-11T22:13:31.017Z,23.26
2022-10-11T22:15:32.326Z,23.45
2022-10-11T22:17:33.598Z,23.30
2022-10-11T22:19:34.854Z,23.29
2022-10-11T22:21:37.565Z,23.32
2022-10-11T22:23:41.447Z,23.20
2022-10-11T22:25:42.758Z,23.02
2022-10-11T22:27:44.011Z,22.82
2022-10-11T22:29:45.307Z,22.42
2022-10-11T22:31:46.598Z,22.64
2022-10-11T22:33:47.901Z,22.73
2022-10-11T22:35:49.218Z,22.80
2022-10-11T22:37:50.543Z,22.88
2022-10-11T22:39:51.822Z,22.91
2022-10-11T22:41:53.096Z,22.92
2022-10-11T22:43:54.416Z,22.92
2022-10-11T22:45:55.738Z,22.94
2022-10-11T22:47:57.002Z,22.92
2022-10-11T22:49:58.743Z,22.88
2022-10-11T22:52:00.038Z,22.84
2022-10-11T22:54:01.326Z,22.86
2022-10-11T22:56:02.689Z,22.88
2022-10-11T22:58:03.958Z,22.98
2022-10-11T23:00:05.373Z,22.89
2022-10-11T23:02:07.554Z,22.86
2022-10-11T23:04:08.849Z,23.03
2022-10-11T23:06:10.118Z,23.08
2022-10-11T23:08:11.452Z,23.10
2022-10-11T23:10:12.771Z,23.07
2022-10-11T23:12:14.098Z,23.15
2022-10-11T23:14:15.566Z,23.15
2022-10-11T23:16:16.875Z,23.10
2022-10-11T23:18:18.359Z,23.12
2022-10-11T23:20:19.695Z,23.05
2022-10-11T23:22:20.954Z,23.11
2022-10-11T23:24:22.250Z,23.10
2022-10-11T23:26:23.571Z,23.10
2022-10-11T23:28:24.897Z,23.14
2022-10-11T23:30:26.267Z,23.14
2022-10-11T23:32:27.572Z,23.10
2022-10-11T23:34:28.931Z,23.08
2022-10-11T23:36:30.247Z,23.07
2022-10-11T23:38:31.624Z,23.03
2022-10-11T23:40:32.882Z,23.00
2022-10-11T23:42:34.192Z,23.02
2022-10-11T23:44:35.492Z,23.03
2022-10-11T23:46:36.807Z,22.72
2022-10-11T23:48:38.083Z,22.42
2022-10-11T23:50:39.405Z,22.45
2022-10-11T23:52:40.736Z,22.73
2022-10-11T23:54:42.038Z,22.87
2022-10-11T23:56:43.317Z,22.98
2022-10-11T23:58:44.638Z,22.96
